createdAt,value
2022-08-06T00:02:22.501Z,100.00
2022-08-06T00:04:52.864Z,100.00
2022-08-06T00:07:22.529Z,100.00
2022-08-06T00:10:00.222Z,100.00
2022-08-06T00:12:29.630Z,100.00
2022-08-06T00:14:56.658Z,100.00
2022-08-06T00:17:24.333Z,100.00
2022-08-06T00:19:58.589Z,100.00
2022-08-06T00:22:27.622Z,100.00
2022-08-06T00:24:55.591Z,100.00
2022-08-06T00:27:24.908Z,100.00
2022-08-06T00:29:57.113Z,100.00
2022-08-06T00:32:32.151Z,100.00
2022-08-06T00:34:58.692Z,100.00
2022-08-06T00:37:28.888Z,100.00
2022-08-06T00:40:23.849Z,100.00
2022-08-06T00:42:54.674Z,100.00
2022-08-06T00:45:23.726Z,100.00
2022-08-06T00:48:03.324Z,100.00
2022-08-06T00:50:35.082Z,100.00
2022-08-06T00:53:03.656Z,100.00
2022-08-06T00:55:32.169Z,100.00
2022-08-06T00:58:05.103Z,100.00
2022-08-06T01:00:36.867Z,100.00
2022-08-06T01:03:05.466Z,100.00
2022-08-06T01:06:04.807Z,100.00
2022-08-06T01:08:19.349Z,100.00
2022-08-06T01:10:45.777Z,100.00
2022-08-06T01:13:23.263Z,100.00
2022-08-06T01:16:29.568Z,100.00
2022-08-06T01:19:50.831Z,100.00
2022-08-06T01:22:31.412Z,100.00
2022-08-06T01:25:12.686Z,100.00
2022-08-06T01:27:57.042Z,100.00
2022-08-06T01:30:28.819Z,100.00
2022-08-06T01:33:10.656Z,100.00
2022-08-06T01:35:54.853Z,100.00
2022-08-06T01:38:36.888Z,100.00
2022-08-06T01:41:14.072Z,100.00
2022-08-06T01:44:06.588Z,100.00
2022-08-06T01:46:29.304Z,100.00
2022-08-06T01:48:58.842Z,100.00
2022-08-06T01:52:13.812Z,100.00
2022-08-06T01:54:25.592Z,100.00
2022-08-06T01:57:00.316Z,100.00
2022-08-06T01:59:38.759Z,100.00
2022-08-06T02:02:08.857Z,100.00
2022-08-06T02:04:40.722Z,100.00
2022-08-06T02:08:34.122Z,100.00
2022-08-06T02:09:59.691Z,100.00
2022-08-06T02:12:29.018Z,100.00
2022-08-06T02:15:01.939Z,100.00
2022-08-06T02:18:04.500Z,100.00
2022-08-06T02:20:37.779Z,100.00
2022-08-06T02:23:08.702Z,100.00
2022-08-06T02:25:40.734Z,100.00
2022-08-06T02:28:09.688Z,100.00
2022-08-06T02:30:42.514Z,100.00
2022-08-06T02:33:10.889Z,100.00
2022-08-06T02:35:43.498Z,100.00
2022-08-06T02:38:16.112Z,100.00
2022-08-06T02:40:47.413Z,100.00
2022-08-06T02:43:19.740Z,100.00
2022-08-06T02:45:59.301Z,100.00
2022-08-06T02:48:47.026Z,100.00
2022-08-06T02:52:11.832Z,100.00
2022-08-06T02:54:08.158Z,100.00
2022-08-06T02:56:42.769Z,100.00
2022-08-06T02:59:16.229Z,100.00
2022-08-06T03:01:52.310Z,100.00
2022-08-06T03:04:32.512Z,100.00
2022-08-06T03:07:06.614Z,100.00
2022-08-06T03:09:53.318Z,100.00
2022-08-06T03:12:30.500Z,100.00
2022-08-06T03:15:07.312Z,100.00
2022-08-06T03:17:40.391Z,100.00
2022-08-06T03:20:17.499Z,100.00
2022-08-06T03:22:47.786Z,100.00
2022-08-06T03:25:16.422Z,100.00
2022-08-06T03:27:45.482Z,100.00
2022-08-06T03:30:32.152Z,100.00
2022-08-06T03:33:07.633Z,100.00
2022-08-06T03:35:54.722Z,100.00
2022-08-06T03:38:29.049Z,100.00
2022-08-06T03:40:57.977Z,100.00
2022-08-06T03:43:28.562Z,100.00
2022-08-06T03:46:05.004Z,100.00
2022-08-06T03:48:41.875Z,100.00
2022-08-06T03:51:14.257Z,100.00
2022-08-06T03:53:46.888Z,100.00
2022-08-06T03:56:22.319Z,100.00
2022-08-06T03:59:00.158Z,100.00
2022-08-06T04:01:29.719Z,100.00
2022-08-06T04:03:58.360Z,100.00
2022-08-06T04:06:27.423Z,100.00
2022-08-06T04:08:55.051Z,100.00
2022-08-06T04:12:13.787Z,100.00
2022-08-06T04:14:09.991Z,100.00
2022-08-06T04:16:37.965Z,100.00
2022-08-06T04:19:08.594Z,100.00
2022-08-06T04:23:00.290Z,100.00
2022-08-06T04:24:23.573Z,100.00
2022-08-06T04:26:59.752Z,100.00
2022-08-06T04:29:50.836Z,100.00
2022-08-06T04:32:19.489Z,100.00
2022-08-06T04:36:08.272Z,100.00
2022-08-06T04:37:40.665Z,100.00
2022-08-06T04:40:14.835Z,100.00
2022-08-06T04:42:42.216Z,100.00
2022-08-06T04:46:17.770Z,100.00
2022-08-06T04:47:57.247Z,100.00
2022-08-06T04:50:24.709Z,100.00
2022-08-06T04:52:52.974Z,100.00
2022-08-06T04:55:24.359Z,100.00
2022-08-06T04:58:08.162Z,100.00
2022-08-06T05:00:59.882Z,100.00
2022-08-06T05:04:03.292Z,100.00
2022-08-06T05:06:23.634Z,100.00
2022-08-06T05:08:55.703Z,100.00
2022-08-06T05:11:58.586Z,100.00
2022-08-06T05:14:53.371Z,98.71
2022-08-06T05:17:23.351Z,97.20
2022-08-06T05:20:00.098Z,96.31
2022-08-06T05:22:51.881Z,95.29
2022-08-06T05:25:22.418Z,93.98
2022-08-06T05:28:09.879Z,92.39
2022-08-06T05:30:49.838Z,92.27
2022-08-06T05:33:30.806Z,92.74
2022-08-06T05:36:01.497Z,92.41
2022-08-06T05:38:31.944Z,91.88
2022-08-06T05:41:00.038Z,91.11
2022-08-06T05:43:58.024Z,91.15
2022-08-06T05:46:24.986Z,90.20
2022-08-06T05:49:12.027Z,89.35
2022-08-06T05:52:23.867Z,89.33
2022-08-06T05:55:02.421Z,88.81
2022-08-06T05:57:41.263Z,89.14
2022-08-06T06:00:32.854Z,87.96
2022-08-06T06:03:02.415Z,86.20
2022-08-06T06:06:04.878Z,85.69
2022-08-06T06:08:38.020Z,84.39
2022-08-06T06:11:08.696Z,82.80
2022-08-06T06:13:40.313Z,82.71
2022-08-06T06:16:54.688Z,84.21
2022-08-06T06:19:36.916Z,83.87
2022-08-06T06:22:17.142Z,81.70
2022-08-06T06:24:50.625Z,80.50
2022-08-06T06:27:35.649Z,80.66
2022-08-06T06:30:11.087Z,79.95
2022-08-06T06:32:51.386Z,81.68
2022-08-06T06:35:57.041Z,80.29
2022-08-06T06:38:48.009Z,80.07
2022-08-06T06:41:33.404Z,78.86
2022-08-06T06:45:03.104Z,79.47
2022-08-06T06:47:19.754Z,80.33
2022-08-06T06:50:07.207Z,80.54
2022-08-06T06:52:40.283Z,81.01
2022-08-06T06:55:18.804Z,80.25
2022-08-06T06:57:52.224Z,81.02
2022-08-06T07:00:43.739Z,80.66
2022-08-06T07:03:09.764Z,79.46
2022-08-06T07:06:06.309Z,78.92
2022-08-06T07:08:30.271Z,79.44
2022-08-06T07:11:00.304Z,77.76
2022-08-06T07:13:47.023Z,75.87
2022-08-06T07:16:34.522Z,75.49
2022-08-06T07:19:04.075Z,75.77
2022-08-06T07:21:31.555Z,74.99
2022-08-06T07:24:07.449Z,75.36
2022-08-06T07:26:37.069Z,75.13
2022-08-06T07:29:48.821Z,74.15
2022-08-06T07:32:04.016Z,74.56
2022-08-06T07:34:33.353Z,73.07
2022-08-06T07:37:01.970Z,74.13
2022-08-06T07:39:39.722Z,73.23
2022-08-06T07:42:13.109Z,71.91
2022-08-06T07:44:56.331Z,71.68
2022-08-06T07:47:54.432Z,71.68
2022-08-06T07:50:15.726Z,72.19
2022-08-06T07:52:44.683Z,71.13
2022-08-06T07:55:14.215Z,69.21
2022-08-06T07:57:55.704Z,67.64
2022-08-06T08:00:27.394Z,67.93
2022-08-06T08:03:42.968Z,67.73
2022-08-06T08:06:18.707Z,66.79
2022-08-06T08:08:51.777Z,67.19
2022-08-06T08:11:20.532Z,66.35
2022-08-06T08:14:04.597Z,67.97
2022-08-06T08:16:38.412Z,68.08
2022-08-06T08:19:35.249Z,67.58
2022-08-06T08:22:06.631Z,65.83
2022-08-06T08:24:35.546Z,67.73
2022-08-06T08:27:21.856Z,66.57
2022-08-06T08:29:54.535Z,68.63
2022-08-06T08:32:21.928Z,66.95
2022-08-06T08:34:53.423Z,66.72
2022-08-06T08:37:21.131Z,64.61
2022-08-06T08:39:48.250Z,65.53
2022-08-06T08:42:36.725Z,65.79
2022-08-06T08:45:05.159Z,62.83
2022-08-06T08:47:47.058Z,63.22
2022-08-06T08:50:26.483Z,65.61
2022-08-06T08:53:04.465Z,64.92
2022-08-06T08:57:09.513Z,66.01
2022-08-06T08:59:01.613Z,63.12
2022-08-06T09:01:08.337Z,64.53
2022-08-06T09:07:36.663Z,64.46
2022-08-06T09:10:12.320Z,63.41
2022-08-06T09:12:44.992Z,62.19
2022-08-06T09:15:14.458Z,62.19
2022-08-06T09:18:11.547Z,60.36
2022-08-06T09:20:31.285Z,60.26
2022-08-06T09:22:58.880Z,59.09
2022-08-06T09:25:51.610Z,57.47
2022-08-06T09:28:35.547Z,59.81
2022-08-06T09:31:21.236Z,57.03
2022-08-06T09:34:30.471Z,57.81
2022-08-06T09:36:56.706Z,58.57
2022-08-06T09:39:46.358Z,60.04
2022-08-06T09:42:38.851Z,58.24
2022-08-06T09:45:15.228Z,59.69
2022-08-06T09:47:43.654Z,57.28
2022-08-06T09:50:14.835Z,57.98
2022-08-06T09:53:02.291Z,58.89
2022-08-06T09:55:38.237Z,60.33
2022-08-06T09:58:08.116Z,66.57
2022-08-06T10:00:38.091Z,71.84
2022-08-06T10:04:05.040Z,73.95
2022-08-06T10:06:10.337Z,81.50
2022-08-06T10:08:38.772Z,80.84
2022-08-06T10:11:07.302Z,82.67
2022-08-06T10:13:43.789Z,84.16
2022-08-06T10:16:30.971Z,84.80
2022-08-06T10:19:11.556Z,86.68
2022-08-06T10:21:47.173Z,83.65
2022-08-06T10:24:26.056Z,83.12
2022-08-06T10:27:07.963Z,85.01
2022-08-06T10:29:53.662Z,83.19
2022-08-06T10:32:54.112Z,83.98
2022-08-06T10:35:25.661Z,86.26
2022-08-06T10:37:57.520Z,79.15
2022-08-06T10:40:30.535Z,79.57
2022-08-06T10:42:59.865Z,75.57
2022-08-06T10:45:27.871Z,73.80
2022-08-06T10:48:58.629Z,73.25
2022-08-06T10:51:01.202Z,70.45
2022-08-06T10:54:01.388Z,71.10
2022-08-06T10:56:18.010Z,68.82
2022-08-06T10:58:49.446Z,71.76
2022-08-06T11:01:36.439Z,67.29
2022-08-06T11:04:32.435Z,64.61
2022-08-06T11:08:01.748Z,64.97
2022-08-06T11:10:27.041Z,60.83
2022-08-06T11:13:52.392Z,56.67
2022-08-06T11:16:28.580Z,58.76
2022-08-06T11:19:07.303Z,58.70
2022-08-06T11:21:59.043Z,55.57
2022-08-06T11:24:26.488Z,55.71
2022-08-06T11:27:01.281Z,56.85
2022-08-06T11:29:55.248Z,57.81
2022-08-06T11:32:44.972Z,57.84
2022-08-06T11:35:48.887Z,58.31
2022-08-06T11:38:53.476Z,55.14
2022-08-06T11:41:50.811Z,50.86
2022-08-06T11:44:18.258Z,50.50
2022-08-06T11:46:48.797Z,50.76
2022-08-06T11:49:43.607Z,49.40
2022-08-06T11:52:40.406Z,49.89
2022-08-06T11:55:23.829Z,49.80
2022-08-06T11:58:21.156Z,44.96
2022-08-06T12:01:03.546Z,46.62
2022-08-06T12:03:48.516Z,48.26
2022-08-06T12:06:26.190Z,48.22
2022-08-06T12:09:21.022Z,48.98
2022-08-06T12:11:50.713Z,49.79
2022-08-06T12:14:49.148Z,49.04
2022-08-06T12:17:19.318Z,48.15
2022-08-06T12:20:01.427Z,46.88
2022-08-06T12:22:30.945Z,47.97
2022-08-06T12:25:10.670Z,50.24
2022-08-06T12:27:43.236Z,47.91
2022-08-06T12:30:16.247Z,44.18
2022-08-06T12:33:03.458Z,45.03
2022-08-06T12:35:30.389Z,43.96
2022-08-06T12:37:59.740Z,43.12
2022-08-06T12:40:29.130Z,42.27
2022-08-06T12:43:14.948Z,41.95
2022-08-06T12:46:06.343Z,42.51
2022-08-06T12:48:31.298Z,39.30
2022-08-06T12:51:14.310Z,40.36
2022-08-06T12:53:53.612Z,39.99
2022-08-06T12:56:29.183Z,39.21
2022-08-06T12:58:57.228Z,38.23
2022-08-06T13:02:07.492Z,37.58
2022-08-06T13:04:16.739Z,40.24
2022-08-06T13:06:44.295Z,41.74
2022-08-06T13:09:15.716Z,40.42
2022-08-06T13:11:42.613Z,41.94
2022-08-06T13:14:18.486Z,40.65
2022-08-06T13:16:56.262Z,38.71
2022-08-06T13:19:32.541Z,38.58
2022-08-06T13:22:07.069Z,39.43
2022-08-06T13:24:35.422Z,41.44
2022-08-06T13:27:06.032Z,41.82
2022-08-06T13:30:35.630Z,41.33
2022-08-06T13:32:33.282Z,40.82
2022-08-06T13:35:11.326Z,40.13
2022-08-06T13:37:55.944Z,42.01
2022-08-06T13:40:47.405Z,43.47
2022-08-06T13:43:50.773Z,41.40
2022-08-06T13:46:28.394Z,41.73
2022-08-06T13:49:01.621Z,42.08
2022-08-06T13:51:34.560Z,43.00
2022-08-06T13:54:04.284Z,45.45
2022-08-06T13:56:41.057Z,48.43
2022-08-06T13:59:08.224Z,47.73
2022-08-06T14:01:45.838Z,50.72
2022-08-06T14:04:14.353Z,50.81
2022-08-06T14:06:44.828Z,50.32
2022-08-06T14:09:19.331Z,52.87
2022-08-06T14:11:54.014Z,50.98
2022-08-06T14:14:22.445Z,48.68
2022-08-06T14:16:50.073Z,50.67
2022-08-06T14:20:15.543Z,51.23
2022-08-06T14:22:04.148Z,49.60
2022-08-06T14:24:36.693Z,50.13
2022-08-06T14:27:15.194Z,50.96
2022-08-06T14:30:26.601Z,53.47
2022-08-06T14:32:32.208Z,53.45
2022-08-06T14:35:03.348Z,54.66
2022-08-06T14:37:43.490Z,56.41
2022-08-06T14:40:32.429Z,54.39
2022-08-06T14:43:18.173Z,53.10
2022-08-06T14:45:44.592Z,53.05
2022-08-06T14:48:12.049Z,52.87
2022-08-06T14:50:42.019Z,53.11
2022-08-06T14:53:16.036Z,53.42
2022-08-06T14:56:06.836Z,54.09
2022-08-06T14:58:30.551Z,55.17
2022-08-06T15:00:57.339Z,55.94
2022-08-06T15:03:27.690Z,57.43
2022-08-06T15:06:04.026Z,56.37
2022-08-06T15:08:34.431Z,56.62
2022-08-06T15:11:06.020Z,56.72
2022-08-06T15:13:41.082Z,55.81
2022-08-06T15:16:11.296Z,56.63
2022-08-06T15:19:21.042Z,57.03
2022-08-06T15:21:51.295Z,55.75
2022-08-06T15:24:21.969Z,56.05
2022-08-06T15:26:51.844Z,54.10
2022-08-06T15:29:27.437Z,53.89
2022-08-06T15:32:08.449Z,54.45
2022-08-06T15:34:44.671Z,53.26
2022-08-06T15:37:21.679Z,54.48
2022-08-06T15:40:03.926Z,55.97
2022-08-06T15:42:33.965Z,55.27
2022-08-06T15:45:00.320Z,55.24
2022-08-06T15:47:32.632Z,54.36
2022-08-06T15:50:08.051Z,54.81
2022-08-06T15:52:37.433Z,52.90
2022-08-06T15:55:15.061Z,53.34
2022-08-06T15:58:04.838Z,51.79
2022-08-06T16:00:29.787Z,51.42
2022-08-06T16:02:56.239Z,51.79
2022-08-06T16:05:32.391Z,51.54
2022-08-06T16:08:10.900Z,50.65
2022-08-06T16:10:57.611Z,51.19
2022-08-06T16:13:23.975Z,50.93
2022-08-06T16:15:53.163Z,49.89
2022-08-06T16:18:30.213Z,49.35
2022-08-06T16:21:02.673Z,49.33
2022-08-06T16:23:57.482Z,49.91
2022-08-06T16:26:30.124Z,51.57
2022-08-06T16:29:07.744Z,50.92
2022-08-06T16:31:37.756Z,52.41
2022-08-06T16:34:14.298Z,52.31
2022-08-06T16:36:43.241Z,52.36
2022-08-06T16:39:12.481Z,53.25
2022-08-06T16:41:59.117Z,53.34
2022-08-06T16:44:34.172Z,53.55
2022-08-06T16:47:05.053Z,54.59
2022-08-06T16:50:17.684Z,54.72
2022-08-06T16:52:44.953Z,56.68
2022-08-06T16:57:57.500Z,55.88
2022-08-06T17:00:59.602Z,56.16
2022-08-06T17:03:11.611Z,55.58
2022-08-06T17:05:44.924Z,54.33
2022-08-06T17:08:16.922Z,54.69
2022-08-06T17:10:43.944Z,55.51
2022-08-06T17:13:10.307Z,55.22
2022-08-06T17:15:37.623Z,55.10
2022-08-06T17:18:04.879Z,54.84
2022-08-06T17:20:31.462Z,54.36
2022-08-06T17:23:00.240Z,54.52
2022-08-06T17:25:50.781Z,56.09
2022-08-06T17:28:14.467Z,51.00
2022-08-06T17:30:40.934Z,54.47
2022-08-06T17:33:08.409Z,54.57
2022-08-06T17:36:29.701Z,54.94
2022-08-06T17:38:23.683Z,54.44
2022-08-06T17:40:50.251Z,54.93
2022-08-06T17:43:37.829Z,52.27
2022-08-06T17:46:26.800Z,51.99
2022-08-06T17:48:49.838Z,53.00
2022-08-06T17:51:21.173Z,51.35
2022-08-06T17:53:52.455Z,50.24
2022-08-06T17:56:29.529Z,51.76
2022-08-06T17:59:17.018Z,52.24
2022-08-06T18:01:46.709Z,50.68
2022-08-06T18:04:21.787Z,51.69
2022-08-06T18:06:55.470Z,52.13
2022-08-06T18:10:12.113Z,52.72
2022-08-06T18:12:11.572Z,53.17
2022-08-06T18:14:37.991Z,52.43
2022-08-06T18:17:06.883Z,52.30
2022-08-06T18:19:34.430Z,53.79
2022-08-06T18:22:12.048Z,53.62
2022-08-06T18:24:50.367Z,54.40
2022-08-06T18:27:53.292Z,53.54
2022-08-06T18:30:04.991Z,55.52
2022-08-06T18:32:32.785Z,54.95
2022-08-06T18:35:04.315Z,56.13
2022-08-06T18:38:00.057Z,56.38
2022-08-06T18:40:38.551Z,56.23
2022-08-06T18:43:06.159Z,59.54
2022-08-06T18:45:36.810Z,61.14
2022-08-06T18:48:25.395Z,62.16
2022-08-06T18:50:56.735Z,62.30
2022-08-06T18:54:00.191Z,61.32
2022-08-06T18:56:10.496Z,61.10
2022-08-06T18:58:43.513Z,61.73
2022-08-06T19:01:20.761Z,62.04
2022-08-06T19:03:50.232Z,61.86
2022-08-06T19:06:17.668Z,61.80
2022-08-06T19:08:44.222Z,61.94
2022-08-06T19:11:11.080Z,63.55
2022-08-06T19:14:16.949Z,62.56
2022-08-06T19:16:25.794Z,64.56
2022-08-06T19:18:57.520Z,64.58
2022-08-06T19:21:25.973Z,64.83
2022-08-06T19:24:03.143Z,65.02
2022-08-06T19:26:31.608Z,64.91
2022-08-06T19:28:58.160Z,66.09
2022-08-06T19:31:42.085Z,67.74
2022-08-06T19:34:14.536Z,67.03
2022-08-06T19:36:43.415Z,67.78
2022-08-06T19:39:54.300Z,67.99
2022-08-06T19:42:01.163Z,68.55
2022-08-06T19:44:35.949Z,68.46
2022-08-06T19:47:02.961Z,69.24
2022-08-06T19:49:41.003Z,69.21
2022-08-06T19:52:08.917Z,69.49
2022-08-06T19:54:36.207Z,70.01
2022-08-06T19:57:06.361Z,70.80
2022-08-06T20:00:48.662Z,70.66
2022-08-06T20:02:21.514Z,70.92
2022-08-06T20:04:56.230Z,71.83
2022-08-06T20:07:24.974Z,71.72
2022-08-06T20:10:01.203Z,72.62
2022-08-06T20:12:29.881Z,73.61
2022-08-06T20:14:59.055Z,73.51
2022-08-06T20:17:29.607Z,73.62
2022-08-06T20:20:07.520Z,73.53
2022-08-06T20:22:39.531Z,73.53
2022-08-06T20:25:17.885Z,74.26
2022-08-06T20:29:09.356Z,75.05
2022-08-06T20:30:33.817Z,74.83
2022-08-06T20:33:01.624Z,74.14
2022-08-06T20:35:30.767Z,74.53
2022-08-06T20:38:03.231Z,75.53
2022-08-06T20:41:26.126Z,75.96
2022-08-06T20:44:06.279Z,75.99
2022-08-06T20:46:07.683Z,76.43
2022-08-06T20:48:37.797Z,76.03
2022-08-06T20:51:04.928Z,75.91
2022-08-06T20:53:32.865Z,76.52
2022-08-06T20:55:59.669Z,77.45
2022-08-06T20:58:26.056Z,77.53
2022-08-06T21:00:59.305Z,77.80
2022-08-06T21:05:09.945Z,78.24
2022-08-06T21:06:12.114Z,79.18
2022-08-06T21:08:38.989Z,79.15
2022-08-06T21:11:05.459Z,79.76
2022-08-06T21:13:36.847Z,79.98
2022-08-06T21:16:28.682Z,79.29
2022-08-06T21:19:00.410Z,79.18
2022-08-06T21:21:27.107Z,80.48
2022-08-06T21:23:58.159Z,80.89
2022-08-06T21:26:29.657Z,81.10
2022-08-06T21:29:01.613Z,81.99
2022-08-06T21:31:48.146Z,82.43
2022-08-06T21:34:15.365Z,83.60
2022-08-06T21:36:42.247Z,84.57
2022-08-06T21:39:12.976Z,85.05
2022-08-06T21:41:54.677Z,85.55
2022-08-06T21:44:27.750Z,85.68
2022-08-06T21:46:58.636Z,85.82
2022-08-06T21:50:04.650Z,86.36
2022-08-06T21:52:28.140Z,86.01
2022-08-06T21:55:05.714Z,85.44
2022-08-06T21:57:47.680Z,86.48
2022-08-06T22:00:34.129Z,87.47
2022-08-06T22:03:02.472Z,88.60
2022-08-06T22:06:20.934Z,89.36
2022-08-06T22:08:20.679Z,89.80
2022-08-06T22:10:52.753Z,90.32
2022-08-06T22:13:24.360Z,90.35
2022-08-06T22:15:55.437Z,90.86
2022-08-06T22:18:28.611Z,91.78
2022-08-06T22:20:59.441Z,92.11
2022-08-06T22:23:28.724Z,92.58
2022-08-06T22:25:56.453Z,92.67
2022-08-06T22:28:24.019Z,93.10
2022-08-06T22:31:05.552Z,93.32
2022-08-06T22:33:58.267Z,93.18
2022-08-06T22:38:19.554Z,93.89
2022-08-06T22:39:07.630Z,94.15
2022-08-06T22:41:57.325Z,94.88
2022-08-06T22:44:30.850Z,95.75
2022-08-06T22:47:03.659Z,96.77
2022-08-06T22:49:30.132Z,97.29
2022-08-06T22:52:04.377Z,97.71
2022-08-06T22:54:57.824Z,97.64
2022-08-06T22:57:17.557Z,96.57
2022-08-06T23:00:11.919Z,96.41
2022-08-06T23:02:30.464Z,96.08
2022-08-06T23:04:57.066Z,96.53
2022-08-06T23:07:25.556Z,96.86
2022-08-06T23:09:54.421Z,96.16
2022-08-06T23:12:36.483Z,95.90
2022-08-06T23:15:29.705Z,95.72
2022-08-06T23:17:56.529Z,95.85
2022-08-06T23:20:34.785Z,96.46
2022-08-06T23:23:02.283Z,96.66
2022-08-06T23:26:02.605Z,97.44
2022-08-06T23:28:24.374Z,97.25
2022-08-06T23:30:54.847Z,97.57
2022-08-06T23:33:21.177Z,98.32
2022-08-06T23:35:48.864Z,98.61
2022-08-06T23:38:31.784Z,98.25
2022-08-06T23:41:01.027Z,97.25
2022-08-06T23:43:34.374Z,96.87
2022-08-06T23:46:02.419Z,96.09
2022-08-06T23:48:30.611Z,96.21
2022-08-06T23:50:58.802Z,95.97
2022-08-06T23:54:08.383Z,96.09
2022-08-06T23:56:18.317Z,95.98
2022-08-06T23:58:48.568Z,96.18
